createdAt,value
2018-12-17T00:01:53.166Z,7.03
2018-12-17T00:04:21.536Z,7.20
2018-12-17T00:06:49.882Z,6.97
2018-12-17T00:09:18.262Z,7.50
2018-12-17T00:11:46.752Z,6.77
2018-12-17T00:14:15.096Z,7.67
2018-12-17T00:16:43.460Z,7.40
2018-12-17T00:19:11.817Z,6.87
2018-12-17T00:21:40.176Z,7.03
2018-12-17T00:24:08.556Z,6.57
2018-12-17T00:26:36.938Z,7.50
2018-12-17T00:29:05.405Z,7.50
2018-12-17T00:31:33.801Z,6.83
2018-12-17T00:34:02.182Z,8.33
2018-12-17T00:36:30.532Z,6.03
2018-12-17T00:38:58.887Z,6.83
2018-12-17T00:41:27.254Z,6.77
2018-12-17T00:43:55.630Z,7.07
2018-12-17T00:46:23.983Z,6.87
2018-12-17T00:48:52.997Z,6.40
2018-12-17T00:51:21.963Z,6.50
2018-12-17T00:53:50.331Z,6.63
2018-12-17T00:56:18.684Z,9.53
2018-12-17T00:58:47.032Z,7.33
2018-12-17T01:01:15.395Z,6.80
2018-12-17T01:03:43.748Z,6.67
2018-12-17T01:06:12.106Z,6.87
2018-12-17T01:08:40.476Z,7.17
2018-12-17T01:11:08.857Z,6.30
2018-12-17T01:13:37.203Z,6.50
2018-12-17T01:16:06.672Z,7.33
2018-12-17T01:18:35.213Z,7.43
2018-12-17T01:21:03.551Z,6.90
2018-12-17T01:23:31.931Z,6.07
2018-12-17T01:26:00.607Z,6.40
2018-12-17T01:28:28.959Z,6.93
2018-12-17T01:30:57.323Z,7.37
2018-12-17T01:33:25.711Z,6.73
2018-12-17T01:35:54.111Z,7.23
2018-12-17T01:38:22.473Z,6.17
2018-12-17T01:40:50.839Z,6.80
2018-12-17T01:43:19.213Z,6.67
2018-12-17T01:45:47.576Z,7.13
2018-12-17T01:49:18.824Z,7.73
2018-12-17T01:51:47.186Z,6.70
2018-12-17T01:54:15.902Z,6.93
2018-12-17T01:56:44.264Z,6.87
2018-12-17T01:59:12.634Z,7.63
2018-12-17T02:01:41.096Z,28.37
2018-12-17T02:04:09.522Z,17.42
2018-12-17T02:06:37.888Z,22.10
2018-12-17T02:09:07.218Z,17.63
2018-12-17T02:11:35.568Z,16.43
2018-12-17T02:14:03.944Z,16.27
2018-12-17T02:16:32.352Z,13.73
2018-12-17T02:19:00.722Z,22.47
2018-12-17T02:21:29.108Z,18.23
2018-12-17T02:23:57.662Z,17.30
2018-12-17T02:26:26.039Z,15.20
2018-12-17T02:28:54.418Z,16.00
2018-12-17T02:31:22.800Z,13.77
2018-12-17T02:33:51.207Z,14.30
2018-12-17T02:36:19.578Z,17.97
2018-12-17T02:38:47.972Z,12.23
2018-12-17T02:41:16.341Z,14.23
2018-12-17T02:43:44.701Z,11.10
2018-12-17T02:46:13.076Z,10.73
2018-12-17T02:48:41.428Z,8.83
2018-12-17T02:53:44.451Z,13.90
2018-12-17T02:56:12.798Z,11.17
2018-12-17T02:58:44.128Z,8.47
2018-12-17T03:01:11.651Z,9.57
2018-12-17T03:03:40.034Z,8.97
2018-12-17T03:06:08.418Z,11.10
2018-12-17T03:08:36.772Z,8.87
2018-12-17T03:11:05.136Z,8.47
2018-12-17T03:13:33.526Z,14.87
2018-12-17T03:16:02.556Z,13.70
2018-12-17T03:18:30.923Z,13.63
2018-12-17T03:20:59.296Z,8.73
2018-12-17T03:23:27.681Z,5.60
2018-12-17T03:25:56.253Z,11.60
2018-12-17T03:28:24.599Z,13.03
2018-12-17T03:30:53.009Z,8.00
2018-12-17T03:33:21.460Z,7.47
2018-12-17T03:35:49.945Z,9.97
2018-12-17T03:38:18.367Z,8.97
2018-12-17T03:40:46.790Z,5.70
2018-12-17T03:43:15.186Z,8.50
2018-12-17T03:45:43.574Z,6.63
2018-12-17T03:48:11.960Z,9.27
2018-12-17T03:50:40.375Z,7.70
2018-12-17T03:53:08.812Z,7.03
2018-12-17T03:55:37.168Z,6.17
2018-12-17T03:58:05.550Z,6.60
2018-12-17T04:00:33.959Z,7.00
2018-12-17T04:03:02.410Z,5.73
2018-12-17T04:05:30.860Z,5.70
2018-12-17T04:07:59.293Z,5.43
2018-12-17T04:10:27.679Z,7.00
2018-12-17T04:12:56.175Z,4.53
2018-12-17T04:15:24.767Z,7.93
2018-12-17T04:17:53.132Z,5.73
2018-12-17T04:20:21.505Z,9.30
2018-12-17T04:22:49.881Z,5.80
2018-12-17T04:25:18.233Z,5.87
2018-12-17T04:27:48.823Z,7.53
2018-12-17T04:30:17.211Z,4.23
2018-12-17T04:32:45.616Z,7.27
2018-12-17T04:35:15.254Z,4.92
2018-12-17T04:37:43.622Z,4.37
2018-12-17T04:40:11.989Z,4.87
2018-12-17T04:42:40.385Z,9.23
2018-12-17T04:45:08.756Z,12.50
2018-12-17T04:47:37.119Z,8.43
2018-12-17T04:50:05.647Z,4.33
2018-12-17T04:52:33.992Z,5.57
2018-12-17T04:55:02.396Z,7.27
2018-12-17T04:57:30.777Z,6.23
2018-12-17T04:59:59.202Z,4.90
2018-12-17T05:02:27.562Z,3.70
2018-12-17T05:04:55.972Z,5.53
2018-12-17T05:07:24.336Z,4.20
2018-12-17T05:09:52.706Z,2.50
2018-12-17T05:12:21.093Z,3.37
2018-12-17T05:14:49.464Z,5.03
2018-12-17T05:17:17.842Z,3.10
2018-12-17T05:19:46.222Z,3.73
2018-12-17T05:22:14.579Z,3.60
2018-12-17T05:24:42.946Z,3.03
2018-12-17T05:27:11.347Z,4.30
2018-12-17T05:29:39.824Z,3.83
2018-12-17T05:32:08.197Z,4.57
2018-12-17T05:34:36.577Z,4.63
2018-12-17T05:37:04.941Z,2.80
2018-12-17T05:39:33.327Z,2.67
2018-12-17T05:42:01.826Z,4.70
2018-12-17T05:44:30.197Z,5.53
2018-12-17T05:46:58.570Z,6.23
2018-12-17T05:49:26.964Z,3.20
2018-12-17T05:51:55.311Z,3.13
2018-12-17T05:54:23.947Z,6.03
2018-12-17T05:56:52.436Z,2.43
2018-12-17T05:59:20.811Z,3.13
2018-12-17T06:01:49.849Z,3.33
2018-12-17T06:04:18.227Z,10.40
2018-12-17T06:06:46.619Z,7.47
2018-12-17T06:09:18.190Z,4.43
2018-12-17T06:11:46.655Z,8.23
2018-12-17T06:14:15.030Z,4.30
2018-12-17T06:16:43.380Z,4.43
2018-12-17T06:19:11.743Z,2.87
2018-12-17T06:21:40.123Z,7.50
2018-12-17T06:24:08.542Z,6.47
2018-12-17T06:26:36.918Z,3.83
2018-12-17T06:29:05.294Z,6.10
2018-12-17T06:31:33.658Z,19.17
2018-12-17T06:34:02.032Z,16.90
2018-12-17T06:36:30.380Z,13.10
2018-12-17T06:38:58.790Z,7.60
2018-12-17T06:41:27.165Z,7.90
2018-12-17T06:43:55.507Z,4.70
2018-12-17T06:46:23.868Z,5.77
2018-12-17T06:48:52.219Z,9.00
2018-12-17T06:51:22.410Z,6.97
2018-12-17T06:53:50.783Z,6.43
2018-12-17T06:56:19.161Z,11.93
2018-12-17T06:58:47.540Z,5.40
2018-12-17T07:01:15.913Z,5.17
2018-12-17T07:03:44.265Z,5.43
2018-12-17T07:06:12.604Z,5.13
2018-12-17T07:08:40.979Z,5.37
2018-12-17T07:11:09.804Z,7.37
2018-12-17T07:13:38.192Z,5.00
2018-12-17T07:16:06.529Z,2.57
2018-12-17T07:18:35.089Z,6.50
2018-12-17T07:21:03.457Z,5.90
2018-12-17T07:23:31.834Z,4.00
2018-12-17T07:26:00.203Z,3.83
2018-12-17T07:28:28.590Z,3.77
2018-12-17T07:30:57.068Z,3.73
2018-12-17T07:33:25.433Z,3.57
2018-12-17T07:35:53.800Z,5.60
2018-12-17T07:38:22.154Z,2.97
2018-12-17T07:40:50.538Z,3.73
2018-12-17T07:43:18.891Z,2.57
2018-12-17T07:45:47.265Z,2.73
2018-12-17T07:48:15.657Z,2.90
2018-12-17T07:50:44.029Z,4.03
2018-12-17T07:53:12.391Z,3.03
2018-12-17T07:55:55.188Z,3.10
2018-12-17T07:58:23.522Z,2.17
2018-12-17T08:00:52.303Z,2.20
2018-12-17T08:03:20.694Z,2.07
2018-12-17T08:05:49.031Z,3.50
2018-12-17T08:08:17.372Z,2.03
2018-12-17T08:10:45.750Z,2.27
2018-12-17T08:13:14.431Z,2.27
2018-12-17T08:15:42.799Z,2.17
2018-12-17T08:18:21.565Z,2.40
2018-12-17T08:20:50.863Z,5.27
2018-12-17T08:23:19.230Z,3.73
2018-12-17T08:25:47.626Z,3.20
2018-12-17T08:28:15.979Z,2.77
2018-12-17T08:30:44.350Z,2.27
2018-12-17T08:33:12.686Z,1.90
2018-12-17T08:35:41.039Z,2.07
2018-12-17T08:38:09.448Z,2.77
2018-12-17T08:40:37.797Z,2.27
2018-12-17T08:43:06.153Z,2.80
2018-12-17T08:45:34.523Z,2.93
2018-12-17T08:48:02.851Z,2.90
2018-12-17T08:50:31.227Z,2.43
2018-12-17T08:52:59.595Z,1.80
2018-12-17T08:55:27.970Z,2.70
2018-12-17T08:57:56.308Z,1.97
2018-12-17T09:00:24.680Z,2.43
2018-12-17T09:02:53.039Z,1.77
2018-12-17T09:05:21.406Z,2.23
2018-12-17T09:07:49.767Z,2.00
2018-12-17T09:10:18.121Z,2.27
2018-12-17T09:12:46.490Z,2.37
2018-12-17T09:15:14.866Z,3.30
2018-12-17T09:17:43.243Z,1.73
2018-12-17T09:20:11.599Z,2.10
2018-12-17T09:22:39.986Z,3.10
2018-12-17T09:25:08.371Z,2.00
2018-12-17T09:27:36.748Z,1.40
2018-12-17T09:30:05.731Z,1.83
2018-12-17T09:32:34.087Z,2.37
2018-12-17T09:35:02.448Z,2.53
2018-12-17T09:37:30.863Z,2.03
2018-12-17T09:39:59.222Z,2.00
2018-12-17T09:42:27.582Z,2.40
2018-12-17T09:44:55.940Z,2.70
2018-12-17T09:47:24.345Z,2.30
2018-12-17T09:49:52.821Z,1.67
2018-12-17T09:52:21.172Z,2.63
2018-12-17T09:54:49.505Z,1.67
2018-12-17T09:57:17.838Z,2.37
2018-12-17T09:59:46.187Z,1.60
2018-12-17T10:02:28.994Z,1.30
2018-12-17T10:04:57.364Z,3.03
2018-12-17T10:07:30.423Z,2.40
2018-12-17T10:09:56.402Z,1.80
2018-12-17T10:12:24.764Z,2.17
2018-12-17T10:14:53.138Z,1.30
2018-12-17T10:17:21.506Z,1.37
2018-12-17T10:19:49.893Z,1.50
2018-12-17T10:22:18.244Z,1.07
2018-12-17T10:24:46.606Z,1.73
2018-12-17T10:27:16.420Z,1.73
2018-12-17T10:29:44.946Z,3.63
2018-12-17T10:32:13.314Z,2.40
2018-12-17T10:34:41.655Z,1.50
2018-12-17T10:37:10.003Z,2.50
2018-12-17T10:39:38.345Z,1.90
2018-12-17T10:42:06.722Z,2.60
2018-12-17T10:44:35.108Z,2.63
2018-12-17T10:47:03.466Z,1.57
2018-12-17T10:49:31.827Z,1.23
2018-12-17T10:52:00.172Z,3.73
2018-12-17T10:54:28.520Z,1.10
2018-12-17T10:56:56.902Z,1.70
2018-12-17T10:59:25.259Z,1.97
2018-12-17T11:02:11.599Z,1.73
2018-12-17T11:04:44.476Z,1.60
2018-12-17T11:07:12.823Z,1.20
2018-12-17T11:09:41.889Z,1.60
2018-12-17T11:12:10.256Z,1.30
2018-12-17T11:14:38.616Z,1.47
2018-12-17T11:17:06.980Z,1.73
2018-12-17T11:19:35.324Z,2.37
2018-12-17T11:22:03.684Z,1.30
2018-12-17T11:24:32.039Z,1.17
2018-12-17T11:27:00.398Z,1.20
2018-12-17T11:29:28.777Z,1.60
2018-12-17T11:31:57.142Z,1.20
2018-12-17T11:34:25.541Z,1.37
2018-12-17T11:36:53.926Z,2.27
2018-12-17T11:39:22.327Z,1.77
2018-12-17T11:41:50.665Z,2.37
2018-12-17T11:44:19.031Z,1.30
2018-12-17T11:46:47.391Z,1.17
2018-12-17T11:49:15.724Z,7.80
2018-12-17T11:51:44.098Z,5.67
2018-12-17T11:54:12.450Z,6.73
2018-12-17T11:56:52.856Z,36.80
2018-12-17T11:59:21.430Z,7.70
2018-12-17T12:01:49.796Z,7.87
2018-12-17T12:04:18.156Z,4.63
2018-12-17T12:06:46.512Z,14.93
2018-12-17T12:09:19.102Z,9.57
2018-12-17T12:11:47.479Z,11.83
2018-12-17T12:14:15.889Z,15.50
2018-12-17T12:16:47.479Z,7.60
2018-12-17T12:19:17.950Z,5.10
2018-12-17T12:21:46.344Z,5.30
2018-12-17T12:24:14.832Z,9.13
2018-12-17T12:26:43.204Z,4.03
2018-12-17T12:30:14.491Z,4.47
2018-12-17T12:32:42.831Z,6.20
2018-12-17T12:35:13.066Z,6.63
2018-12-17T12:37:41.443Z,3.90
2018-12-17T12:40:09.880Z,3.63
2018-12-17T12:42:38.240Z,3.33
2018-12-17T12:45:07.258Z,5.00
2018-12-17T12:47:35.626Z,7.90
2018-12-17T12:50:04.776Z,11.73
2018-12-17T12:52:33.131Z,7.00
2018-12-17T12:55:01.499Z,6.17
2018-12-17T12:57:29.878Z,14.23
2018-12-17T12:59:58.252Z,15.97
2018-12-17T13:02:26.602Z,8.40
2018-12-17T13:04:55.002Z,15.77
2018-12-17T13:07:23.363Z,21.17
2018-12-17T13:09:51.696Z,8.53
2018-12-17T13:12:20.086Z,9.63
2018-12-17T13:14:48.580Z,5.67
2018-12-17T13:17:22.365Z,10.87
2018-12-17T13:19:50.710Z,8.60
2018-12-17T13:22:19.070Z,7.63
2018-12-17T13:24:47.433Z,6.17
2018-12-17T13:27:15.791Z,8.13
2018-12-17T13:29:44.265Z,7.10
2018-12-17T13:32:12.692Z,6.30
2018-12-17T13:34:41.034Z,3.90
2018-12-17T13:37:09.375Z,4.10
2018-12-17T13:39:37.728Z,4.93
2018-12-17T13:42:06.070Z,3.20
2018-12-17T13:44:34.431Z,7.97
2018-12-17T13:47:02.888Z,4.03
2018-12-17T13:49:31.239Z,7.07
2018-12-17T13:52:04.907Z,3.77
2018-12-17T13:54:33.260Z,4.13
2018-12-17T13:57:01.658Z,9.10
2018-12-17T13:59:30.037Z,13.03
2018-12-17T14:01:58.399Z,7.17
2018-12-17T14:04:26.775Z,8.17
2018-12-17T14:06:55.262Z,6.83
2018-12-17T14:09:25.635Z,7.97
2018-12-17T14:11:53.992Z,3.10
2018-12-17T14:14:22.377Z,19.37
2018-12-17T14:17:59.231Z,10.17
2018-12-17T14:20:32.948Z,2.63
2018-12-17T14:23:01.293Z,6.63
2018-12-17T14:25:29.667Z,5.53
2018-12-17T14:27:58.059Z,8.47
2018-12-17T14:30:26.423Z,6.43
2018-12-17T14:32:54.784Z,3.33
2018-12-17T14:35:23.132Z,5.77
2018-12-17T14:37:56.814Z,4.23
2018-12-17T14:40:25.155Z,3.13
2018-12-17T14:42:53.546Z,3.87
2018-12-17T14:45:21.895Z,2.17
2018-12-17T14:47:50.294Z,1.80
2018-12-17T14:50:18.674Z,4.53
2018-12-17T14:52:47.023Z,4.90
2018-12-17T14:55:15.392Z,4.03
2018-12-17T14:57:43.792Z,4.77
2018-12-17T15:01:41.395Z,1.87
2018-12-17T15:04:09.736Z,3.43
2018-12-17T15:06:38.099Z,2.93
2018-12-17T15:09:07.263Z,2.10
2018-12-17T15:11:35.700Z,3.67
2018-12-17T15:14:04.055Z,2.23
2018-12-17T15:16:32.442Z,3.03
2018-12-17T15:19:00.795Z,2.77
2018-12-17T15:21:29.167Z,3.23
2018-12-17T15:23:57.542Z,1.30
2018-12-17T15:26:25.994Z,2.00
2018-12-17T15:28:54.414Z,2.43
2018-12-17T15:31:22.875Z,3.20
2018-12-17T15:33:51.231Z,1.70
2018-12-17T15:36:19.610Z,2.23
2018-12-17T15:38:47.987Z,1.03
2018-12-17T15:41:16.366Z,2.50
2018-12-17T15:43:44.722Z,1.70
2018-12-17T15:46:13.098Z,3.83
2018-12-17T15:48:41.444Z,2.00
2018-12-17T15:51:09.794Z,2.40
2018-12-17T15:53:38.182Z,1.70
2018-12-17T15:56:07.727Z,0.87
2018-12-17T15:58:36.114Z,4.77
2018-12-17T16:01:04.458Z,2.23
2018-12-17T16:03:32.924Z,2.93
2018-12-17T16:06:01.280Z,2.63
2018-12-17T16:08:29.667Z,5.30
2018-12-17T16:10:58.019Z,6.17
2018-12-17T16:13:28.041Z,3.60
2018-12-17T16:15:56.423Z,2.30
2018-12-17T16:19:27.570Z,3.80
2018-12-17T16:21:55.954Z,1.93
2018-12-17T16:24:24.460Z,5.97
2018-12-17T16:26:52.810Z,5.73
2018-12-17T16:29:21.229Z,2.80
2018-12-17T16:31:49.634Z,2.90
2018-12-17T16:34:18.038Z,2.03
2018-12-17T16:36:46.708Z,4.43
2018-12-17T16:39:15.095Z,1.93
2018-12-17T16:41:43.444Z,3.47
2018-12-17T16:44:11.824Z,1.90
2018-12-17T16:46:40.407Z,2.50
2018-12-17T16:49:08.790Z,1.57
2018-12-17T16:51:37.380Z,2.83
2018-12-17T16:54:05.747Z,2.33
2018-12-17T16:56:34.119Z,3.03
2018-12-17T16:59:02.480Z,2.17
2018-12-17T17:01:30.850Z,3.47
2018-12-17T17:03:59.217Z,2.87
2018-12-17T17:06:27.587Z,4.87
2018-12-17T17:08:55.966Z,2.67
2018-12-17T17:11:24.389Z,3.57
2018-12-17T17:13:53.515Z,4.87
2018-12-17T17:16:21.891Z,3.00
2018-12-17T17:18:50.271Z,1.03
2018-12-17T17:21:18.615Z,4.43
2018-12-17T17:24:01.329Z,2.13
2018-12-17T17:26:30.645Z,3.10
2018-12-17T17:28:59.019Z,3.50
2018-12-17T17:31:37.904Z,4.83
2018-12-17T17:34:06.815Z,1.50
2018-12-17T17:36:36.089Z,7.10
2018-12-17T17:39:05.680Z,4.30
2018-12-17T17:41:35.590Z,3.03
2018-12-17T17:44:04.308Z,1.50
2018-12-17T17:46:32.675Z,2.10
2018-12-17T17:49:01.040Z,2.17
2018-12-17T17:51:29.406Z,1.70
2018-12-17T17:53:57.756Z,2.47
2018-12-17T17:56:26.124Z,3.17
2018-12-17T17:58:54.541Z,2.07
2018-12-17T18:01:22.934Z,1.80
2018-12-17T18:03:51.295Z,2.17
2018-12-17T18:06:19.651Z,2.10
2018-12-17T18:08:48.013Z,3.30
2018-12-17T18:11:16.510Z,3.77
2018-12-17T18:13:44.882Z,5.13
2018-12-17T18:16:13.228Z,5.30
2018-12-17T18:18:41.600Z,3.17
2018-12-17T18:21:09.963Z,2.83
2018-12-17T18:23:38.312Z,4.17
2018-12-17T18:26:06.682Z,1.90
2018-12-17T18:28:35.053Z,4.57
2018-12-17T18:31:03.416Z,2.93
2018-12-17T18:33:31.831Z,4.63
2018-12-17T18:36:00.493Z,4.77
2018-12-17T18:38:29.274Z,1.73
2018-12-17T18:40:57.639Z,4.30
2018-12-17T18:43:26.245Z,4.80
2018-12-17T18:45:54.688Z,9.80
2018-12-17T18:48:23.056Z,26.20
2018-12-17T18:50:51.431Z,26.03
2018-12-17T18:53:19.971Z,34.50
2018-12-17T18:55:48.458Z,52.77
2018-12-17T18:58:16.795Z,61.27
2018-12-17T19:00:45.167Z,65.23
2018-12-17T19:03:13.549Z,67.13
2018-12-17T19:05:41.942Z,56.67
2018-12-17T19:08:10.298Z,55.17
2018-12-17T19:10:50.675Z,49.30
2018-12-17T19:13:19.267Z,41.83
2018-12-17T19:15:48.165Z,32.83
2018-12-17T19:18:16.530Z,25.03
2018-12-17T19:20:44.914Z,27.53
2018-12-17T19:23:13.540Z,26.70
2018-12-17T19:25:41.912Z,22.37
2018-12-17T19:28:10.276Z,19.20
2018-12-17T19:30:38.690Z,23.20
2018-12-17T19:33:07.180Z,21.17
2018-12-17T19:35:35.566Z,22.53
2018-12-17T19:38:03.970Z,23.37
2018-12-17T19:40:32.323Z,25.67
2018-12-17T19:43:00.782Z,18.93
2018-12-17T19:45:29.212Z,16.90
2018-12-17T19:47:57.594Z,16.50
2018-12-17T19:50:26.021Z,17.00
2018-12-17T19:52:54.397Z,13.57
2018-12-17T19:55:25.377Z,16.87
2018-12-17T19:57:53.734Z,13.83
2018-12-17T20:00:24.464Z,14.30
2018-12-17T20:02:52.959Z,15.70
2018-12-17T20:06:24.138Z,12.00
2018-12-17T20:08:53.187Z,12.47
2018-12-17T20:11:21.639Z,14.83
2018-12-17T20:13:49.999Z,14.87
2018-12-17T20:16:18.354Z,10.47
2018-12-17T20:18:46.734Z,11.47
2018-12-17T20:21:15.102Z,11.43
2018-12-17T20:23:43.468Z,11.60
2018-12-17T20:26:11.840Z,13.63
2018-12-17T20:28:40.218Z,10.53
2018-12-17T20:31:08.912Z,10.00
2018-12-17T20:33:37.322Z,12.40
2018-12-17T20:36:05.683Z,9.97
2018-12-17T20:38:34.088Z,8.87
2018-12-17T20:41:02.507Z,10.57
2018-12-17T20:43:31.068Z,9.67
2018-12-17T20:45:59.430Z,9.70
2018-12-17T20:48:27.783Z,6.43
2018-12-17T20:50:56.176Z,7.87
2018-12-17T20:53:25.356Z,7.20
2018-12-17T20:55:53.719Z,10.13
2018-12-17T20:58:22.205Z,7.33
2018-12-17T21:00:50.583Z,9.37
2018-12-17T21:03:18.965Z,6.43
2018-12-17T21:05:47.371Z,8.93
2018-12-17T21:08:15.738Z,9.43
2018-12-17T21:10:44.102Z,7.37
2018-12-17T21:13:12.519Z,7.13
2018-12-17T21:15:40.892Z,8.03
2018-12-17T21:18:09.298Z,11.30
2018-12-17T21:20:37.753Z,4.83
2018-12-17T21:23:07.620Z,8.97
2018-12-17T21:25:36.145Z,9.57
2018-12-17T21:28:04.625Z,5.53
2018-12-17T21:30:32.995Z,9.13
2018-12-17T21:33:06.698Z,9.10
2018-12-17T21:35:32.122Z,7.57
2018-12-17T21:38:00.497Z,7.70
2018-12-17T21:40:29.032Z,5.67
2018-12-17T21:42:57.398Z,6.33
2018-12-17T21:45:25.779Z,5.67
2018-12-17T21:47:54.132Z,5.63
2018-12-17T21:50:22.570Z,4.67
2018-12-17T21:52:52.851Z,5.33
2018-12-17T21:55:21.280Z,5.67
2018-12-17T21:57:49.645Z,4.67
2018-12-17T22:00:18.459Z,5.10
2018-12-17T22:02:47.634Z,6.00
2018-12-17T22:05:16.034Z,5.70
2018-12-17T22:07:44.793Z,4.57
2018-12-17T22:10:17.523Z,4.23
2018-12-17T22:12:45.874Z,6.67
2018-12-17T22:15:14.236Z,5.27
2018-12-17T22:17:42.626Z,4.27
2018-12-17T22:20:10.989Z,3.50
2018-12-17T22:22:39.360Z,5.37
2018-12-17T22:25:07.722Z,6.97
2018-12-17T22:27:36.094Z,4.07
2018-12-17T22:30:05.106Z,4.63
2018-12-17T22:32:33.446Z,5.33
2018-12-17T22:35:01.788Z,7.40
2018-12-17T22:37:30.143Z,4.37
2018-12-17T22:39:58.614Z,3.73
2018-12-17T22:42:26.975Z,6.07
2018-12-17T22:44:55.351Z,7.03
2018-12-17T22:47:23.718Z,7.70
2018-12-17T22:49:52.083Z,3.73
2018-12-17T22:52:20.441Z,5.10
2018-12-17T22:54:48.793Z,4.07
2018-12-17T22:57:17.146Z,3.80
2018-12-17T22:59:45.521Z,4.93
2018-12-17T23:02:13.902Z,3.57
2018-12-17T23:04:42.255Z,2.63
2018-12-17T23:07:10.632Z,5.23
2018-12-17T23:09:50.302Z,4.33
2018-12-17T23:12:29.852Z,3.93
2018-12-17T23:15:09.391Z,3.50
2018-12-17T23:17:40.430Z,4.53
2018-12-17T23:20:09.687Z,5.40
2018-12-17T23:22:39.969Z,3.03
2018-12-17T23:25:08.562Z,4.27
2018-12-17T23:27:36.926Z,3.93
2018-12-17T23:30:08.186Z,3.40
2018-12-17T23:32:36.859Z,6.10
2018-12-17T23:35:07.067Z,4.40
2018-12-17T23:37:35.443Z,3.33
2018-12-17T23:40:03.830Z,2.80
2018-12-17T23:42:32.190Z,4.30
2018-12-17T23:45:00.560Z,3.90
2018-12-17T23:47:28.937Z,3.40
2018-12-17T23:49:57.316Z,3.67
2018-12-17T23:52:25.651Z,3.40
2018-12-17T23:54:54.031Z,3.47
2018-12-17T23:57:22.388Z,4.13
2018-12-17T23:59:50.748Z,3.77
